Time;durP1;ratioP1;P1;durP2;ratioP2;P2;SDS_P1;SDS_P2;PMS_P1;PMS_P2;Temp;Humidity;BMP_temperature;BMP_pressure;BME280_temperature;BME280_humidity;BME280_pressure;Samples;Min_cycle;Max_cycle;Signal;HPM_P1;HPM_P2
2020/12/04 00:01:38;;;;;;;14.05;9.10;;;;;;;3.92;93.61;97990.72;5041816;28;20460;-68
2020/12/04 00:04:22;;;;;;;14.02;9.50;;;;;;;3.91;94.67;97983.78;5041800;28;20111;-70
2020/12/04 00:07:07;;;;;;;13.30;9.00;;;;;;;3.91;95.07;97975.88;5056805;28;20056;-70
2020/12/04 00:09:51;;;;;;;12.50;8.45;;;;;;;3.90;95.34;97976.88;5056711;28;20056;-69
2020/12/04 00:12:35;;;;;;;13.07;8.48;;;;;;;3.89;94.82;97976.06;5056700;28;20047;-69
2020/12/04 00:15:19;;;;;;;16.92;9.55;;;;;;;3.87;94.78;97974.56;5056826;28;20124;-68
2020/12/04 00:18:03;;;;;;;12.68;8.90;;;;;;;3.87;95.08;97967.47;5056849;28;20572;-69
2020/12/04 00:20:47;;;;;;;12.95;8.55;;;;;;;3.88;95.79;97952.50;5056618;28;20052;-69
2020/12/04 00:23:32;;;;;;;14.07;9.70;;;;;;;3.87;97.00;97945.56;5056264;28;20144;-69
2020/12/04 00:26:16;;;;;;;13.55;8.75;;;;;;;3.86;97.89;97941.28;5041326;28;20056;-68
2020/12/04 00:29:00;;;;;;;13.27;9.43;;;;;;;3.84;98.42;97936.16;5041313;28;20128;-70
2020/12/04 00:31:44;;;;;;;14.95;9.25;;;;;;;3.85;98.65;97926.47;5040956;28;20071;-69
2020/12/04 00:34:29;;;;;;;13.02;9.00;;;;;;;3.85;97.65;97921.19;5056600;28;20086;-69
2020/12/04 00:37:13;;;;;;;14.30;8.95;;;;;;;3.78;96.97;97917.53;5041354;28;20563;-69
2020/12/04 00:39:57;;;;;;;14.48;9.25;;;;;;;3.75;97.13;97918.66;5055972;28;20047;-69
2020/12/04 00:42:45;;;;;;;14.60;9.77;;;;;;;3.79;97.46;97914.75;5040949;28;20091;-66
2020/12/04 00:45:29;;;;;;;18.02;11.38;;;;;;;3.77;97.76;97902.72;5055875;28;20116;-69
2020/12/04 00:48:13;;;;;;;14.25;9.35;;;;;;;3.74;98.45;97900.41;5055873;28;20103;-69
2020/12/04 00:50:56;;;;;;;16.23;10.40;;;;;;;3.73;98.88;97893.44;5041236;28;20064;-69
2020/12/04 00:53:41;;;;;;;14.65;9.68;;;;;;;3.78;99.92;97899.09;5040946;28;20414;-69
2020/12/04 00:56:33;;;;;;;16.38;10.50;;;;;;;3.71;100.00;97888.38;5040547;28;20071;-69
2020/12/04 00:59:17;;;;;;;13.13;9.48;;;;;;;3.64;100.00;97882.06;5040708;28;20039;-69
2020/12/04 01:02:00;;;;;;;12.30;8.70;;;;;;;3.63;99.92;97869.03;5055567;28;20110;-69
2020/12/04 01:04:44;;;;;;;13.35;8.80;;;;;;;3.66;99.24;97879.28;5026645;28;20103;-69
2020/12/04 01:07:29;;;;;;;13.18;9.27;;;;;;;3.69;98.90;97864.00;5055397;28;20044;-68
2020/12/04 01:10:13;;;;;;;13.80;9.35;;;;;;;3.67;99.70;97865.13;5040296;28;20048;-69
2020/12/04 01:12:57;;;;;;;13.57;9.18;;;;;;;3.65;99.98;97859.19;5055591;28;20083;-69
2020/12/04 01:15:41;;;;;;;13.93;9.32;;;;;;;3.66;100.00;97852.94;5055471;28;20679;-69
2020/12/04 01:18:26;;;;;;;14.75;9.75;;;;;;;3.64;100.00;97849.66;5040408;28;20048;-69
2020/12/04 01:21:11;;;;;;;15.32;9.32;;;;;;;3.62;100.00;97856.88;5055471;28;20433;-69
2020/12/04 01:23:55;;;;;;;13.27;9.05;;;;;;;3.62;100.00;97856.88;5039997;28;20051;-69
2020/12/04 01:26:40;;;;;;;13.07;9.27;;;;;;;3.59;100.00;97851.91;5054951;28;20052;-69
2020/12/04 01:29:24;;;;;;;14.38;8.82;;;;;;;3.56;100.00;97850.41;5040095;28;20124;-69
2020/12/04 01:32:08;;;;;;;14.32;9.15;;;;;;;3.48;100.00;97837.25;5055248;28;20412;-69
2020/12/04 01:34:51;;;;;;;16.45;9.65;;;;;;;3.45;100.00;97836.72;5055001;28;20136;-69
2020/12/04 01:37:35;;;;;;;13.68;9.57;;;;;;;3.38;100.00;97836.53;5055179;28;20044;-69
2020/12/04 01:40:20;;;;;;;13.50;9.38;;;;;;;3.36;100.00;97830.59;5054811;28;20098;-69
2020/12/04 01:43:05;;;;;;;15.35;10.50;;;;;;;3.35;100.00;97825.50;5055322;28;20433;-69
2020/12/04 01:45:50;;;;;;;19.63;10.68;;;;;;;3.32;100.00;97817.91;5055158;28;20052;-69
2020/12/04 01:48:34;;;;;;;17.50;10.40;;;;;;;3.31;100.00;97826.78;5039726;28;20135;-69
2020/12/04 01:51:18;;;;;;;16.05;10.23;;;;;;;3.33;100.00;97822.22;5054538;28;20048;-69
2020/12/04 01:54:01;;;;;;;15.00;9.30;;;;;;;3.35;100.00;97825.50;5054563;28;20056;-69
2020/12/04 01:56:46;;;;;;;14.70;9.52;;;;;;;3.36;100.00;97824.50;5039282;28;20048;-69
2020/12/04 01:59:30;;;;;;;17.85;9.18;;;;;;;3.40;100.00;97831.09;5054688;28;20102;-69
2020/12/04 02:02:19;;;;;;;16.50;9.50;;;;;;;3.39;100.00;97830.28;5039787;28;20068;-69
2020/12/04 02:05:04;;;;;;;17.52;9.63;;;;;;;3.41;100.00;97816.94;5054517;28;20187;-69
2020/12/04 02:07:54;;;;;;;17.90;9.48;;;;;;;3.41;100.00;97815.16;5054480;28;20051;-69
2020/12/04 02:10:42;;;;;;;14.73;9.57;;;;;;;3.43;100.00;97804.47;5053758;28;20413;-69
2020/12/04 02:13:27;;;;;;;15.63;10.10;;;;;;;3.48;100.00;97812.72;5039374;28;20110;-69
2020/12/04 02:16:19;;;;;;;16.05;9.25;;;;;;;3.49;100.00;97814.34;5054585;28;20106;-69
2020/12/04 02:19:03;;;;;;;15.35;9.32;;;;;;;3.46;100.00;97815.50;5054008;28;20059;-69
2020/12/04 02:21:48;;;;;;;15.73;9.35;;;;;;;3.48;100.00;97804.81;5054000;28;20138;-69
2020/12/04 02:24:32;;;;;;;13.43;8.70;;;;;;;3.48;100.00;97807.44;5054259;28;20043;-69
2020/12/04 02:27:16;;;;;;;14.70;9.30;;;;;;;3.50;100.00;97810.72;5054153;28;20060;-69
2020/12/04 02:30:03;;;;;;;14.57;9.57;;;;;;;3.54;100.00;97812.88;5054051;28;20044;-69
2020/12/04 02:32:47;;;;;;;15.95;8.70;;;;;;;3.54;100.00;97812.88;5053907;28;20484;-68
2020/12/04 02:35:31;;;;;;;14.15;9.07;;;;;;;3.57;100.00;97825.72;5038733;28;20124;-70
2020/12/04 02:38:15;;;;;;;13.70;8.77;;;;;;;3.55;100.00;97811.09;5010822;28;20056;-70
2020/12/04 02:40:59;;;;;;;18.67;9.07;;;;;;;3.57;100.00;97822.28;5053937;28;20178;-68
2020/12/04 02:43:43;;;;;;;16.75;8.43;;;;;;;3.56;100.00;97815.38;5038823;28;20115;-69
2020/12/04 02:46:27;;;;;;;16.95;9.50;;;;;;;3.51;100.00;97817.66;5038396;28;20094;-69
2020/12/04 02:49:11;;;;;;;12.70;8.57;;;;;;;3.54;100.00;97830.53;5038639;28;20060;-68
2020/12/04 02:51:57;;;;;;;16.40;9.70;;;;;;;3.45;100.00;97802.50;5052386;28;20140;-68
2020/12/04 02:54:41;;;;;;;14.40;9.68;;;;;;;3.42;100.00;97818.59;5038543;28;20052;-70
2020/12/04 02:57:25;;;;;;;13.80;9.32;;;;;;;3.37;100.00;97797.19;5038323;28;20468;-69
2020/12/04 03:00:09;;;;;;;15.45;9.70;;;;;;;3.39;100.00;97787.31;5053385;28;20086;-69
2020/12/04 03:02:53;;;;;;;16.38;9.60;;;;;;;3.41;100.00;97786.19;5053267;28;20559;-69
2020/12/04 03:05:37;;;;;;;17.42;9.45;;;;;;;3.45;100.00;97789.34;5038322;28;20047;-69
2020/12/04 03:08:25;;;;;;;15.00;9.93;;;;;;;3.46;100.00;97790.97;5038185;28;20052;-70
2020/12/04 03:11:09;;;;;;;17.15;10.20;;;;;;;3.48;100.00;97797.75;5053179;28;20075;-69
2020/12/04 03:13:53;;;;;;;15.07;8.98;;;;;;;3.50;100.00;97779.13;5053450;28;20106;-69
2020/12/04 03:16:37;;;;;;;14.30;8.68;;;;;;;3.61;100.00;97782.31;5053065;28;20072;-70
2020/12/04 03:19:21;;;;;;;16.77;9.07;;;;;;;3.61;100.00;97781.47;5053370;28;20040;-69
2020/12/04 03:22:05;;;;;;;13.60;8.13;;;;;;;3.61;100.00;97777.03;5023825;28;20052;-69
2020/12/04 03:24:50;;;;;;;16.35;9.63;;;;;;;3.66;100.00;97789.72;5053122;28;20166;-69
2020/12/04 03:27:34;;;;;;;14.27;9.20;;;;;;;3.63;100.00;97798.75;5038282;28;20125;-69
2020/12/04 03:30:18;;;;;;;20.17;9.23;;;;;;;3.58;100.00;97771.25;5024106;28;20048;-68
2020/12/04 03:33:02;;;;;;;16.20;9.45;;;;;;;3.78;100.00;97799.81;5053218;28;20136;-69
2020/12/04 03:35:46;;;;;;;13.18;5.47;;;;;;;4.05;100.00;97828.50;5068024;22;20051;-68
2020/12/04 03:38:30;;;;;;;11.02;7.35;;;;;;;3.97;100.00;97809.22;5032126;28;20064;-67
2020/12/04 03:41:14;;;;;;;10.95;6.60;;;;;;;3.94;100.00;97799.00;5018378;28;20052;-68
2020/12/04 03:43:58;;;;;;;13.63;8.90;;;;;;;3.88;100.00;97803.09;5033039;28;20049;-67
2020/12/04 03:46:44;;;;;;;19.88;9.77;;;;;;;3.83;100.00;97791.38;4998694;28;20556;-67
2020/12/04 03:49:28;;;;;;;13.32;8.60;;;;;;;3.77;100.00;97781.50;5013394;28;20048;-67
2020/12/04 03:52:12;;;;;;;15.73;10.02;;;;;;;3.77;100.00;97781.50;5013476;28;20422;-67
2020/12/04 03:54:56;;;;;;;15.50;9.93;;;;;;;3.75;100.00;97776.41;5013138;28;20115;-68
2020/12/04 03:57:40;;;;;;;16.90;10.05;;;;;;;3.73;100.00;97767.84;5013079;28;20048;-67
2020/12/04 04:00:24;;;;;;;15.52;9.25;;;;;;;3.76;100.00;97771.97;4998253;28;20044;-67
2020/12/04 04:03:09;;;;;;;20.60;10.75;;;;;;;3.78;100.00;97780.53;4998490;28;20057;-67
2020/12/04 04:05:53;;;;;;;14.77;9.13;;;;;;;3.81;100.00;97777.56;5012961;28;20096;-68
2020/12/04 04:08:37;;;;;;;14.10;8.57;;;;;;;3.84;100.00;97778.06;5012913;28;20096;-67
2020/12/04 04:11:21;;;;;;;17.35;9.50;;;;;;;3.90;100.00;97771.31;5012308;28;20521;-67
2020/12/04 04:14:05;;;;;;;15.25;8.50;;;;;;;3.86;100.00;97770.00;4998448;28;20052;-68
2020/12/04 04:16:49;;;;;;;14.45;8.77;;;;;;;3.86;100.00;97770.00;5012170;28;20526;-66
2020/12/04 04:19:33;;;;;;;16.92;9.23;;;;;;;3.87;100.00;97761.09;5012253;28;20056;-68
2020/12/04 04:22:17;;;;;;;19.83;9.75;;;;;;;3.91;100.00;97770.31;5011955;28;20092;-68
2020/12/04 04:25:01;;;;;;;18.88;9.77;;;;;;;3.92;100.00;97780.72;4998129;28;20054;-67
2020/12/04 04:27:46;;;;;;;12.25;8.75;;;;;;;3.92;100.00;97779.88;5012667;28;20052;-68
2020/12/04 04:30:29;;;;;;;11.85;8.45;;;;;;;3.86;100.00;97785.81;5011891;28;20057;-67
2020/12/04 04:33:14;;;;;;;16.13;9.45;;;;;;;3.79;100.00;97775.09;5012789;28;20048;-68
2020/12/04 04:35:58;;;;;;;14.18;9.18;;;;;;;3.76;100.00;97780.66;5016008;28;20073;-67
2020/12/04 04:38:43;;;;;;;13.50;8.60;;;;;;;3.76;100.00;97774.59;5016281;28;20045;-68
2020/12/04 04:41:27;;;;;;;13.27;8.65;;;;;;;3.70;100.00;97780.50;5015513;28;20072;-67
2020/12/04 04:44:12;;;;;;;19.30;9.13;;;;;;;3.69;100.00;97776.22;5001607;28;20061;-68
2020/12/04 04:47:09;;;;;;;21.08;10.10;;;;;;;3.69;100.00;97778.84;5015017;28;20053;-68
2020/12/04 04:49:53;;;;;;;17.85;9.02;;;;;;;3.77;100.00;97778.88;5001426;28;20414;-68
2020/12/04 04:52:39;;;;;;;21.75;10.05;;;;;;;3.74;100.00;97780.03;5016079;28;20057;-67
2020/12/04 04:55:23;;;;;;;21.05;9.82;;;;;;;3.75;100.00;97778.22;5001355;28;20048;-68
2020/12/04 04:58:07;;;;;;;16.95;10.15;;;;;;;3.73;100.00;97782.81;5015212;28;20048;-68
2020/12/04 05:00:51;;;;;;;15.82;8.93;;;;;;;3.73;100.00;97786.28;5000971;28;20133;-68
2020/12/04 05:03:35;;;;;;;17.90;9.80;;;;;;;3.73;100.00;97783.63;5014817;28;20053;-68
2020/12/04 05:06:33;;;;;;;22.67;9.65;;;;;;;3.77;100.00;97786.78;5014937;28;20057;-68
2020/12/04 05:09:25;;;;;;;16.08;8.98;;;;;;;3.77;100.00;97786.78;5014837;28;20470;-67
2020/12/04 05:12:09;;;;;;;16.33;9.20;;;;;;;3.79;100.00;97790.06;5014715;28;20418;-67
2020/12/04 05:15:42;;;;;;;19.05;10.73;;;;;;;3.83;100.00;97781.69;5000929;28;20129;-67
2020/12/04 05:18:26;;;;;;;17.63;9.95;;;;;;;3.88;100.00;97778.56;5016328;28;20048;-68
2020/12/04 05:21:10;;;;;;;13.95;8.82;;;;;;;3.89;100.00;97772.31;5014507;28;20049;-67
2020/12/04 05:23:57;;;;;;;18.23;9.75;;;;;;;3.92;100.00;97785.16;5015339;28;20053;-68
2020/12/04 05:26:40;;;;;;;17.17;9.43;;;;;;;3.93;100.00;97778.88;5015447;28;20410;-68
2020/12/04 05:29:36;;;;;;;16.95;9.57;;;;;;;3.93;100.00;97782.38;5014662;28;20049;-67
2020/12/04 05:32:21;;;;;;;13.65;8.45;;;;;;;3.95;100.00;97772.47;5000885;28;20581;-67
2020/12/04 05:35:09;;;;;;;13.75;8.48;;;;;;;3.99;100.00;97773.81;5000791;28;20129;-68
2020/12/04 05:38:06;;;;;;;14.02;8.90;;;;;;;4.03;100.00;97769.00;5000561;28;20553;-67
2020/12/04 05:41:07;;;;;;;14.95;9.23;;;;;;;4.07;100.00;97773.00;5015346;28;20107;-67
2020/12/04 05:43:53;;;;;;;12.38;9.02;;;;;;;4.06;100.00;97777.41;5015083;28;20422;-68
2020/12/04 05:46:37;;;;;;;13.27;8.45;;;;;;;4.06;100.00;97766.06;4999170;28;20053;-68
2020/12/04 05:49:21;;;;;;;14.68;8.68;;;;;;;4.16;100.00;97779.91;5015172;28;20171;-67
2020/12/04 05:52:05;;;;;;;14.40;9.15;;;;;;;4.13;100.00;97782.88;5013898;28;20056;-67
2020/12/04 05:54:49;;;;;;;14.27;8.75;;;;;;;4.13;100.00;97764.41;5014156;28;20120;-67
2020/12/04 05:57:43;;;;;;;14.68;9.27;;;;;;;4.14;100.00;97764.25;5014981;28;20532;-67
2020/12/04 06:00:28;;;;;;;15.05;9.60;;;;;;;4.15;100.00;97759.81;4986186;28;20418;-67
2020/12/04 06:03:12;;;;;;;13.38;9.23;;;;;;;4.16;100.00;97753.56;5014919;28;20049;-67
2020/12/04 06:05:56;;;;;;;16.67;9.55;;;;;;;4.19;100.00;97750.59;4999906;28;20065;-67
2020/12/04 06:08:40;;;;;;;12.98;8.93;;;;;;;4.16;100.00;97761.47;5014517;28;20048;-67
2020/12/04 06:11:30;;;;;;;14.00;8.60;;;;;;;4.17;100.00;97750.72;5013423;28;20423;-68
2020/12/04 06:14:15;;;;;;;14.00;9.57;;;;;;;4.17;100.00;97758.66;5013668;28;20088;-66
2020/12/04 06:17:02;;;;;;;17.02;10.30;;;;;;;4.18;100.00;97760.28;5014339;28;20080;-66
2020/12/04 06:19:47;;;;;;;15.45;10.27;;;;;;;4.19;100.00;97756.69;5014560;28;20048;-66
2020/12/04 06:22:30;;;;;;;15.52;10.07;;;;;;;4.22;100.00;97758.16;5014274;28;20513;-67
2020/12/04 06:25:15;;;;;;;15.27;9.68;;;;;;;4.23;100.00;97757.16;5013469;28;20434;-67
2020/12/04 06:28:15;;;;;;;13.90;10.27;;;;;;;4.19;100.00;97750.59;5014295;28;20514;-67
2020/12/04 06:31:07;;;;;;;13.05;8.77;;;;;;;4.22;100.00;97760.78;5013096;28;20092;-66
2020/12/04 06:33:51;;;;;;;15.20;9.85;;;;;;;4.23;100.00;97752.72;5013314;28;20044;-67
2020/12/04 06:36:36;;;;;;;15.25;10.25;;;;;;;4.25;100.00;97756.00;5013940;28;20537;-67
2020/12/04 06:39:28;;;;;;;15.73;11.23;;;;;;;4.27;100.00;97761.13;5013883;28;20045;-67
2020/12/04 06:42:30;;;;;;;13.98;9.30;;;;;;;4.26;100.00;97756.84;4999347;28;20052;-67
2020/12/04 06:45:15;;;;;;;15.95;10.73;;;;;;;4.24;100.00;97756.16;5013944;28;20049;-67
2020/12/04 06:48:13;;;;;;;18.45;11.35;;;;;;;4.26;100.00;97759.50;5012980;28;20490;-67
2020/12/04 06:50:58;;;;;;;18.00;11.50;;;;;;;4.27;100.00;97755.84;5013177;28;20057;-66
2020/12/04 06:53:51;;;;;;;17.40;10.70;;;;;;;4.28;100.00;97753.03;5013269;28;20145;-66
2020/12/04 06:56:35;;;;;;;19.70;12.60;;;;;;;4.30;100.00;97758.16;5012614;28;20096;-67
2020/12/04 06:59:27;;;;;;;;;;;;;;;4.32;100.00;97761.44;5014200;28;20120;-67
2020/12/04 07:02:16;;;;;;;35.05;19.73;;;;;;;4.31;100.00;97765.06;5012640;28;20385;-67
2020/12/04 07:05:00;;;;;;;30.88;19.75;;;;;;;4.29;100.00;97761.78;5012912;28;20041;-66
2020/12/04 07:07:45;;;;;;;26.13;16.80;;;;;;;4.31;100.00;97767.72;5012535;28;20060;-67
2020/12/04 07:10:31;;;;;;;19.15;12.65;;;;;;;4.38;100.00;97760.78;5013819;28;20056;-67
2020/12/04 07:13:15;;;;;;;16.50;11.20;;;;;;;4.37;100.00;97769.69;5013778;28;20056;-66
2020/12/04 07:15:59;;;;;;;16.85;11.30;;;;;;;4.40;100.00;97769.34;5013366;28;20053;-66
2020/12/04 07:18:47;;;;;;;14.48;9.95;;;;;;;4.39;100.00;97773.78;5013070;28;20215;-67
2020/12/04 07:21:31;;;;;;;15.45;10.18;;;;;;;4.41;100.00;97766.56;5013963;28;20501;-67
2020/12/04 07:24:15;;;;;;;17.65;9.80;;;;;;;4.41;100.00;97774.47;5012594;28;20525;-66
2020/12/04 07:26:59;;;;;;;17.17;10.48;;;;;;;4.47;100.00;97775.63;5013477;28;20068;-66
2020/12/04 07:29:44;;;;;;;20.88;14.05;;;;;;;4.48;100.00;97767.53;5013386;28;20485;-67
2020/12/04 07:32:28;;;;;;;24.65;15.90;;;;;;;4.49;100.00;97771.81;5013581;28;20627;-67
2020/12/04 07:35:12;;;;;;;22.13;14.52;;;;;;;4.52;100.00;97773.31;5012239;28;20065;-67
2020/12/04 07:37:56;;;;;;;18.65;12.82;;;;;;;4.53;100.00;97781.06;5012045;28;20049;-66
2020/12/04 07:40:41;;;;;;;21.23;13.38;;;;;;;4.59;100.00;97776.94;5013606;28;20133;-67
2020/12/04 07:43:26;;;;;;;20.65;12.75;;;;;;;4.59;100.00;97784.84;5013660;28;20409;-67
2020/12/04 07:46:10;;;;;;;15.98;11.02;;;;;;;4.62;100.00;97789.78;5013047;28;20129;-67
2020/12/04 07:49:13;;;;;;;18.75;11.70;;;;;;;4.60;100.00;97783.84;5012132;28;20129;-67
2020/12/04 07:52:29;;;;;;;16.20;10.60;;;;;;;4.60;100.00;97787.31;4998150;28;20056;-64
2020/12/04 07:55:14;;;;;;;14.50;10.35;;;;;;;4.62;100.00;97784.50;5013141;28;20099;-66
2020/12/04 07:58:10;;;;;;;15.32;10.40;;;;;;;4.69;100.00;97782.84;5012062;28;20049;-67
2020/12/04 08:00:58;;;;;;;18.83;11.00;;;;;;;4.68;100.00;97794.41;5012187;28;20534;-67
2020/12/04 08:03:47;;;;;;;15.50;10.90;;;;;;;4.71;100.00;97788.78;5012284;28;20108;-67
2020/12/04 08:06:31;;;;;;;16.27;11.10;;;;;;;4.75;100.00;97785.63;5012935;28;20048;-67
2020/12/04 08:09:17;;;;;;;16.45;11.45;;;;;;;4.77;100.00;97783.66;5013960;28;20521;-67
2020/12/04 08:12:02;;;;;;;16.90;11.50;;;;;;;4.85;100.00;97791.56;5002151;28;20148;-67
2020/12/04 08:14:56;;;;;;;19.27;10.50;;;;;;;4.85;100.00;97790.72;5016815;28;20048;-67
2020/12/04 08:17:41;;;;;;;18.05;10.35;;;;;;;4.85;100.00;97794.19;5016482;28;20510;-67
2020/12/04 08:20:25;;;;;;;13.80;9.40;;;;;;;4.88;100.00;97793.84;5015860;28;20045;-67
2020/12/04 08:23:09;;;;;;;17.73;11.15;;;;;;;4.92;100.00;97794.34;5016683;28;20112;-67
2020/12/04 08:25:53;;;;;;;17.80;11.80;;;;;;;4.98;100.00;97786.56;5016939;28;20065;-67
2020/12/04 08:28:37;;;;;;;24.25;13.98;;;;;;;5.04;100.00;97781.44;5015847;28;20049;-67
2020/12/04 08:31:25;;;;;;;22.50;13.27;;;;;;;5.06;100.00;97784.75;5015775;28;20465;-67
2020/12/04 08:34:21;;;;;;;22.13;12.80;;;;;;;5.09;100.00;97800.25;5001837;28;20048;-67
2020/12/04 08:37:07;;;;;;;20.55;12.40;;;;;;;5.12;100.00;97793.81;5001310;28;20040;-67
2020/12/04 08:39:51;;;;;;;21.48;12.30;;;;;;;5.22;100.00;97797.88;5015207;28;20049;-67
2020/12/04 08:42:35;;;;;;;20.35;12.35;;;;;;;5.34;100.00;97799.16;5001621;28;20549;-67
2020/12/04 08:45:26;;;;;;;23.42;13.32;;;;;;;5.42;100.00;97796.50;5016142;28;20072;-67
2020/12/04 08:48:17;;;;;;;19.63;10.75;;;;;;;5.47;100.00;97796.81;5015267;28;20048;-67
2020/12/04 08:51:03;;;;;;;18.60;11.85;;;;;;;5.49;100.00;97797.47;5001163;28;20049;-67
2020/12/04 08:53:47;;;;;;;22.63;13.23;;;;;;;5.51;100.00;97800.75;5014964;28;20485;-67
2020/12/04 08:56:31;;;;;;;24.23;15.52;;;;;;;5.47;100.00;97794.16;5016159;28;20104;-67
2020/12/04 08:59:14;;;;;;;22.95;15.82;;;;;;;5.46;100.00;97789.84;5014897;28;20059;-66
2020/12/04 09:01:58;;;;;;;19.65;14.20;;;;;;;5.47;100.00;97783.59;5016052;28;20421;-67
2020/12/04 09:04:42;;;;;;;;;;;;;;;5.48;100.00;97779.13;5016505;28;20052;-67
2020/12/04 09:07:26;;;;;;;44.20;23.67;;;;;;;5.53;100.00;97817.25;5015706;28;19920;-67
2020/12/04 09:10:12;;;;;;;13.27;8.85;;;;;;;5.52;100.00;97812.16;5014709;28;20041;-66
2020/12/04 09:12:56;;;;;;;16.50;11.10;;;;;;;5.51;100.00;97829.81;5014911;28;20120;-67
2020/12/04 09:15:40;;;;;;;20.20;11.60;;;;;;;5.47;100.00;97823.22;5015734;28;20536;-68
2020/12/04 09:18:25;;;;;;;23.73;14.73;;;;;;;5.50;100.00;97830.81;5015712;28;20080;-67
2020/12/04 09:21:08;;;;;;;27.40;17.88;;;;;;;5.46;100.00;97837.41;5014430;28;20100;-67
2020/12/04 09:23:52;;;;;;;26.63;14.25;;;;;;;5.45;100.00;97835.75;5015739;28;20070;-67
2020/12/04 09:26:36;;;;;;;16.90;11.23;;;;;;;5.48;100.00;97832.81;5014248;28;20049;-67
2020/12/04 09:29:20;;;;;;;17.25;12.30;;;;;;;5.49;100.00;97834.44;5014409;28;20135;-66
2020/12/04 09:32:10;;;;;;;30.05;17.73;;;;;;;5.57;100.00;97858.19;5015446;28;20529;-66
2020/12/04 09:34:55;;;;;;;19.60;12.23;;;;;;;5.52;100.00;97849.94;5015416;28;20095;-67
2020/12/04 09:37:40;;;;;;;20.45;11.95;;;;;;;5.52;100.00;97847.31;5014908;28;20057;-67
2020/12/04 09:40:24;;;;;;;17.75;12.00;;;;;;;5.50;100.00;97833.44;5014091;28;20045;-67
2020/12/04 09:43:08;;;;;;;18.00;10.63;;;;;;;5.52;100.00;97842.03;5015278;28;20052;-66
2020/12/04 09:45:52;;;;;;;15.90;9.55;;;;;;;5.62;100.00;97853.22;5014849;28;20578;-67
2020/12/04 09:48:36;;;;;;;;;;;;;;;5.65;100.00;97829.06;5014524;28;20212;-67
2020/12/04 09:51:20;;;;;;;14.70;10.40;;;;;;;5.65;100.00;97822.97;5015117;28;19925;-67
2020/12/04 09:54:05;;;;;;;16.92;9.48;;;;;;;5.68;100.00;97823.47;5014779;28;20057;-67
2020/12/04 09:56:52;;;;;;;14.48;9.50;;;;;;;5.73;100.00;97831.69;5014979;28;20104;-67
2020/12/04 09:59:36;;;;;;;22.10;13.93;;;;;;;5.76;100.00;97831.34;4999860;28;20052;-67
2020/12/04 10:02:20;;;;;;;18.08;12.02;;;;;;;5.80;100.00;97835.31;5000082;28;20096;-67
2020/12/04 10:05:05;;;;;;;16.73;11.50;;;;;;;5.86;100.00;97834.63;5000055;28;20512;-66
2020/12/04 10:07:49;;;;;;;12.98;7.25;;;;;;;5.96;100.00;97842.34;5013451;28;20057;-66
2020/12/04 10:10:33;;;;;;;13.27;8.38;;;;;;;6.00;100.00;97828.63;5013777;28;20080;-67
2020/12/04 10:13:16;;;;;;;11.23;7.57;;;;;;;6.03;100.00;97838.81;5013465;28;20086;-66
2020/12/04 10:16:04;;;;;;;6.57;4.18;;;;;;;6.05;100.00;97836.81;5014524;28;20053;-67
2020/12/04 10:18:48;;;;;;;5.80;3.70;;;;;;;6.09;100.00;97827.56;5014318;28;20040;-67
2020/12/04 10:21:34;;;;;;;6.80;4.40;;;;;;;6.16;100.00;97831.13;5014580;28;20151;-67
2020/12/04 10:24:19;;;;;;;5.32;3.30;;;;;;;6.14;100.00;97824.41;5013655;28;20049;-67
2020/12/04 10:27:03;;;;;;;4.63;3.40;;;;;;;6.18;100.00;97820.38;5014184;28;20415;-67
2020/12/04 10:29:47;;;;;;;5.72;3.30;;;;;;;6.20;100.00;97807.81;4999285;28;20049;-67
2020/12/04 10:32:31;;;;;;;4.82;2.28;;;;;;;6.25;100.00;97805.47;5013799;28;20095;-66
2020/12/04 10:35:15;;;;;;;3.03;1.90;;;;;;;6.27;100.00;97798.97;5014029;28;20049;-67
2020/12/04 10:37:59;;;;;;;3.10;1.80;;;;;;;6.29;100.00;97797.00;5013894;28;20099;-67
2020/12/04 10:40:43;;;;;;;1.80;1.60;;;;;;;6.35;100.00;97783.06;4999723;28;20515;-67
2020/12/04 10:43:27;;;;;;;5.25;1.58;;;;;;;6.41;100.00;97789.47;5013182;28;20386;-67
2020/12/04 10:46:12;;;;;;;1.98;1.40;;;;;;;6.38;100.00;97790.63;5013639;28;20561;-67
2020/12/04 10:48:55;;;;;;;1.88;1.23;;;;;;;6.46;100.00;97803.00;4998932;28;20045;-67
2020/12/04 10:51:39;;;;;;;1.90;1.60;;;;;;;6.46;100.00;97822.31;5013793;28;20061;-66
2020/12/04 10:54:24;;;;;;;4.63;2.30;;;;;;;6.47;100.00;97841.69;4999006;28;20061;-67
2020/12/04 10:57:08;;;;;;;5.15;3.17;;;;;;;6.53;100.00;97851.53;4998757;28;20104;-67
2020/12/04 10:59:53;;;;;;;7.53;4.68;;;;;;;6.56;100.00;97841.44;5013796;28;20427;-66
2020/12/04 11:02:39;;;;;;;4.75;2.72;;;;;;;6.60;100.00;97840.09;5013885;28;20049;-67
2020/12/04 11:05:33;;;;;;;3.05;1.85;;;;;;;6.62;100.00;97839.91;5012616;28;20048;-67
2020/12/04 11:08:17;;;;;;;17.83;10.50;;;;;;;6.66;100.00;97847.31;5013306;28;20104;-66
2020/12/04 11:11:01;;;;;;;21.92;11.38;;;;;;;6.72;100.00;97851.91;5012317;28;20056;-67
2020/12/04 11:13:45;;;;;;;6.70;3.70;;;;;;;6.75;100.00;97840.94;5012223;28;20120;-67
2020/12/04 11:16:28;;;;;;;7.60;2.40;;;;;;;6.74;100.00;97834.00;5013376;28;20053;-67
2020/12/04 11:19:12;;;;;;;3.33;1.92;;;;;;;6.79;100.00;97836.94;5013184;28;20068;-68
2020/12/04 11:22:00;;;;;;;;;;;;;;;6.86;100.00;97829.91;5012848;28;20520;-65
2020/12/04 11:24:44;;;;;;;2.80;1.70;;;;;;;6.87;100.00;97823.63;5012068;28;19983;-67
2020/12/04 11:27:28;;;;;;;4.40;1.95;;;;;;;6.93;100.00;97819.44;5013412;28;20054;-67
2020/12/04 11:30:15;;;;;;;4.78;2.20;;;;;;;6.97;100.00;97813.59;5012498;28;20076;-67
2020/12/04 11:32:59;;;;;;;3.65;1.42;;;;;;;7.03;100.00;97817.34;5012305;28;20120;-67
2020/12/04 11:35:43;;;;;;;3.65;2.20;;;;;;;7.09;100.00;97806.84;4998583;28;20096;-67
2020/12/04 11:38:28;;;;;;;4.63;2.35;;;;;;;7.11;100.00;97798.72;5013185;28;20406;-65
2020/12/04 11:41:12;;;;;;;3.42;2.05;;;;;;;7.10;100.00;97805.84;5013459;28;20100;-66
2020/12/04 11:43:56;;;;;;;3.10;1.80;;;;;;;7.12;100.00;97803.00;4999066;28;20053;-67
2020/12/04 11:46:40;;;;;;;4.68;1.98;;;;;;;7.09;100.00;97798.91;5017045;28;20136;-67
2020/12/04 11:49:24;;;;;;;4.60;2.00;;;;;;;7.04;100.00;97798.63;5016397;28;20500;-66
2020/12/04 11:52:07;;;;;;;6.55;2.40;;;;;;;7.00;100.00;97791.22;5016107;28;20569;-67
2020/12/04 11:54:51;;;;;;;3.80;2.30;;;;;;;6.95;100.00;97793.59;5002487;28;20096;-67
2020/12/04 11:57:35;;;;;;;2.10;1.90;;;;;;;6.91;100.00;97802.91;5015966;28;20095;-67
2020/12/04 12:00:20;;;;;;;2.78;1.88;;;;;;;6.88;100.00;97812.03;5015888;28;20131;-66
2020/12/04 12:03:05;;;;;;;4.75;2.15;;;;;;;6.87;100.00;97814.88;5016123;28;20108;-67
2020/12/04 12:05:49;;;;;;;3.78;2.20;;;;;;;6.82;100.00;97807.47;5016018;28;20565;-67
2020/12/04 12:08:33;;;;;;;3.85;2.10;;;;;;;6.81;100.00;97803.19;5001882;28;20137;-67
2020/12/04 12:11:17;;;;;;;2.33;1.92;;;;;;;6.78;100.00;97816.75;5002139;28;20130;-67
2020/12/04 12:14:01;;;;;;;3.85;1.63;;;;;;;6.78;100.00;97813.28;5016735;28;20144;-67
2020/12/04 12:16:46;;;;;;;2.83;1.98;;;;;;;6.73;100.00;97816.47;5015734;28;20052;-66
2020/12/04 12:19:29;;;;;;;2.88;1.50;;;;;;;6.69;100.00;97817.00;5016156;28;20123;-67
2020/12/04 12:22:13;;;;;;;2.78;1.90;;;;;;;6.75;100.00;97824.25;5001837;28;20052;-67
2020/12/04 12:25:00;;;;;;;4.43;1.83;;;;;;;6.74;100.00;97828.72;5002163;28;20048;-67
2020/12/04 12:27:44;;;;;;;2.22;1.60;;;;;;;6.72;100.00;97822.78;5001636;28;20053;-67
2020/12/04 12:30:28;;;;;;;4.75;2.10;;;;;;;6.70;100.00;97816.84;5016373;28;20143;-67
2020/12/04 12:33:12;;;;;;;2.65;1.70;;;;;;;6.72;100.00;97811.34;5015282;28;20420;-67
2020/12/04 12:35:56;;;;;;;6.35;3.90;;;;;;;6.79;100.00;97821.03;5015052;28;20052;-67
2020/12/04 12:38:40;;;;;;;6.05;4.25;;;;;;;6.82;100.00;97825.16;5001693;28;20037;-67
2020/12/04 12:41:24;;;;;;;5.43;2.40;;;;;;;6.81;100.00;97832.31;5016454;28;20061;-66
2020/12/04 12:44:08;;;;;;;5.60;2.38;;;;;;;6.77;100.00;97833.63;5001454;28;20085;-67
2020/12/04 12:46:53;;;;;;;6.20;2.47;;;;;;;6.77;100.00;97838.13;5016018;28;20053;-67
2020/12/04 12:49:40;;;;;;;4.72;2.53;;;;;;;6.78;100.00;97834.47;5015040;28;20501;-66
2020/12/04 12:52:24;;;;;;;7.22;3.53;;;;;;;6.82;100.00;97831.28;5015327;28;20537;-68